sensor_id;sensor_type;location;lat;lon;timestamp;P1;durP1;ratioP1;P2;durP2;ratioP2
61104;SDS011;46987;32.638;-115.438;2022-10-14T00:00:18;11.98;;;1.80;;
61104;SDS011;46987;32.638;-115.438;2022-10-14T00:02:45;10.48;;;1.67;;
61104;SDS011;46987;32.638;-115.438;2022-10-14T00:05:12;10.55;;;1.77;;
61104;SDS011;46987;32.638;-115.438;2022-10-14T00:07:39;8.00;;;1.40;;
61104;SDS011;46987;32.638;-115.438;2022-10-14T00:10:07;6.72;;;1.60;;
61104;SDS011;46987;32.638;-115.438;2022-10-14T00:12:36;6.68;;;1.50;;
61104;SDS011;46987;32.638;-115.438;2022-10-14T00:15:03;9.25;;;1.48;;
61104;SDS011;46987;32.638;-115.438;2022-10-14T00:17:31;7.55;;;1.73;;
61104;SDS011;46987;32.638;-115.438;2022-10-14T00:19:59;5.82;;;1.60;;
61104;SDS011;46987;32.638;-115.438;2022-10-14T00:22:28;9.30;;;2.00;;
61104;SDS011;46987;32.638;-115.438;2022-10-14T00:24:57;6.25;;;1.55;;
61104;SDS011;46987;32.638;-115.438;2022-10-14T00:27:24;4.60;;;1.45;;
61104;SDS011;46987;32.638;-115.438;2022-10-14T00:29:53;4.47;;;1.63;;
61104;SDS011;46987;32.638;-115.438;2022-10-14T00:32:20;7.43;;;2.70;;
61104;SDS011;46987;32.638;-115.438;2022-10-14T00:34:51;9.27;;;1.63;;
61104;SDS011;46987;32.638;-115.438;2022-10-14T00:37:18;6.47;;;1.42;;
61104;SDS011;46987;32.638;-115.438;2022-10-14T00:39:46;6.03;;;1.30;;
61104;SDS011;46987;32.638;-115.438;2022-10-14T00:42:14;9.35;;;1.55;;
61104;SDS011;46987;32.638;-115.438;2022-10-14T00:45:00;7.15;;;1.55;;
61104;SDS011;46987;32.638;-115.438;2022-10-14T00:47:30;5.78;;;1.48;;
61104;SDS011;46987;32.638;-115.438;2022-10-14T00:50:01;9.38;;;1.70;;
61104;SDS011;46987;32.638;-115.438;2022-10-14T00:52:29;8.35;;;1.63;;
61104;SDS011;46987;32.638;-115.438;2022-10-14T00:54:59;6.93;;;1.58;;
61104;SDS011;46987;32.638;-115.438;2022-10-14T00:57:30;6.85;;;1.50;;
61104;SDS011;46987;32.638;-115.438;2022-10-14T01:00:01;8.05;;;1.40;;
61104;SDS011;46987;32.638;-115.438;2022-10-14T01:02:30;6.07;;;1.55;;
61104;SDS011;46987;32.638;-115.438;2022-10-14T01:04:58;7.82;;;1.67;;
61104;SDS011;46987;32.638;-115.438;2022-10-14T01:07:30;8.27;;;2.10;;
61104;SDS011;46987;32.638;-115.438;2022-10-14T01:10:07;10.63;;;2.05;;
61104;SDS011;46987;32.638;-115.438;2022-10-14T01:12:44;7.93;;;2.10;;
61104;SDS011;46987;32.638;-115.438;2022-10-14T01:15:24;5.03;;;2.60;;
61104;SDS011;46987;32.638;-115.438;2022-10-14T01:18:02;7.78;;;2.38;;
61104;SDS011;46987;32.638;-115.438;2022-10-14T01:23:59;7.60;;;2.17;;
61104;SDS011;46987;32.638;-115.438;2022-10-14T01:26:58;9.95;;;3.08;;
61104;SDS011;46987;32.638;-115.438;2022-10-14T01:29:45;16.17;;;4.70;;
61104;SDS011;46987;32.638;-115.438;2022-10-14T01:32:35;10.85;;;4.50;;
61104;SDS011;46987;32.638;-115.438;2022-10-14T01:35:13;13.25;;;3.80;;
61104;SDS011;46987;32.638;-115.438;2022-10-14T01:37:49;15.13;;;3.92;;
61104;SDS011;46987;32.638;-115.438;2022-10-14T01:40:23;12.40;;;3.50;;
61104;SDS011;46987;32.638;-115.438;2022-10-14T01:42:56;14.20;;;3.60;;
61104;SDS011;46987;32.638;-115.438;2022-10-14T01:45:29;14.85;;;4.40;;
61104;SDS011;46987;32.638;-115.438;2022-10-14T01:47:59;17.80;;;5.05;;
61104;SDS011;46987;32.638;-115.438;2022-10-14T01:50:29;11.15;;;4.80;;
61104;SDS011;46987;32.638;-115.438;2022-10-14T01:53:00;18.80;;;5.57;;
61104;SDS011;46987;32.638;-115.438;2022-10-14T01:55:34;20.52;;;5.30;;
61104;SDS011;46987;32.638;-115.438;2022-10-14T01:58:04;21.97;;;5.67;;
61104;SDS011;46987;32.638;-115.438;2022-10-14T02:00:37;20.80;;;5.88;;
61104;SDS011;46987;32.638;-115.438;2022-10-14T02:03:06;20.63;;;5.63;;
61104;SDS011;46987;32.638;-115.438;2022-10-14T02:05:35;20.60;;;5.82;;
61104;SDS011;46987;32.638;-115.438;2022-10-14T02:08:08;21.83;;;5.72;;
61104;SDS011;46987;32.638;-115.438;2022-10-14T02:10:50;20.55;;;5.70;;
61104;SDS011;46987;32.638;-115.438;2022-10-14T02:13:34;19.33;;;6.10;;
61104;SDS011;46987;32.638;-115.438;2022-10-14T02:16:23;22.17;;;5.72;;
61104;SDS011;46987;32.638;-115.438;2022-10-14T02:19:00;23.38;;;6.38;;
61104;SDS011;46987;32.638;-115.438;2022-10-14T02:21:35;26.58;;;5.57;;
61104;SDS011;46987;32.638;-115.438;2022-10-14T02:24:06;24.65;;;6.10;;
61104;SDS011;46987;32.638;-115.438;2022-10-14T02:26:41;32.78;;;6.63;;
61104;SDS011;46987;32.638;-115.438;2022-10-14T02:29:10;29.00;;;5.95;;
61104;SDS011;46987;32.638;-115.438;2022-10-14T02:31:40;31.63;;;6.55;;
61104;SDS011;46987;32.638;-115.438;2022-10-14T02:34:11;34.03;;;7.47;;
61104;SDS011;46987;32.638;-115.438;2022-10-14T02:36:41;27.80;;;6.88;;
61104;SDS011;46987;32.638;-115.438;2022-10-14T02:39:10;31.33;;;7.20;;
61104;SDS011;46987;32.638;-115.438;2022-10-14T02:41:40;33.33;;;7.05;;
61104;SDS011;46987;32.638;-115.438;2022-10-14T02:44:07;32.90;;;7.03;;
61104;SDS011;46987;32.638;-115.438;2022-10-14T02:46:37;33.65;;;8.10;;
61104;SDS011;46987;32.638;-115.438;2022-10-14T02:49:09;27.27;;;5.90;;
61104;SDS011;46987;32.638;-115.438;2022-10-14T02:51:36;30.00;;;6.72;;
61104;SDS011;46987;32.638;-115.438;2022-10-14T02:54:04;41.75;;;8.52;;
61104;SDS011;46987;32.638;-115.438;2022-10-14T02:56:31;45.40;;;7.60;;
61104;SDS011;46987;32.638;-115.438;2022-10-14T02:58:59;35.80;;;7.65;;
61104;SDS011;46987;32.638;-115.438;2022-10-14T03:01:28;34.67;;;6.63;;
61104;SDS011;46987;32.638;-115.438;2022-10-14T03:03:56;36.55;;;7.68;;
61104;SDS011;46987;32.638;-115.438;2022-10-14T03:06:24;37.15;;;7.43;;
61104;SDS011;46987;32.638;-115.438;2022-10-14T03:08:51;42.65;;;7.88;;
61104;SDS011;46987;32.638;-115.438;2022-10-14T03:11:19;38.78;;;7.38;;
61104;SDS011;46987;32.638;-115.438;2022-10-14T03:13:46;36.38;;;7.35;;
61104;SDS011;46987;32.638;-115.438;2022-10-14T03:16:13;25.70;;;6.60;;
61104;SDS011;46987;32.638;-115.438;2022-10-14T03:18:43;38.65;;;7.50;;
61104;SDS011;46987;32.638;-115.438;2022-10-14T03:21:32;35.30;;;7.00;;
61104;SDS011;46987;32.638;-115.438;2022-10-14T03:24:00;43.97;;;8.05;;
61104;SDS011;46987;32.638;-115.438;2022-10-14T03:26:31;39.08;;;7.60;;
61104;SDS011;46987;32.638;-115.438;2022-10-14T03:28:59;34.08;;;7.88;;
61104;SDS011;46987;32.638;-115.438;2022-10-14T03:31:41;42.30;;;8.93;;
61104;SDS011;46987;32.638;-115.438;2022-10-14T03:34:31;34.47;;;6.93;;
61104;SDS011;46987;32.638;-115.438;2022-10-14T03:37:06;46.10;;;8.20;;
61104;SDS011;46987;32.638;-115.438;2022-10-14T03:39:42;31.38;;;8.35;;
61104;SDS011;46987;32.638;-115.438;2022-10-14T03:42:11;42.75;;;9.02;;
61104;SDS011;46987;32.638;-115.438;2022-10-14T03:50:10;39.15;;;10.68;;
61104;SDS011;46987;32.638;-115.438;2022-10-14T03:52:53;39.45;;;10.65;;
61104;SDS011;46987;32.638;-115.438;2022-10-14T03:55:25;31.52;;;9.85;;
61104;SDS011;46987;32.638;-115.438;2022-10-14T03:57:54;39.33;;;10.05;;
61104;SDS011;46987;32.638;-115.438;2022-10-14T04:00:22;45.95;;;10.88;;
61104;SDS011;46987;32.638;-115.438;2022-10-14T04:03:01;29.67;;;10.70;;
61104;SDS011;46987;32.638;-115.438;2022-10-14T04:05:33;36.85;;;10.52;;
61104;SDS011;46987;32.638;-115.438;2022-10-14T04:08:12;27.38;;;9.93;;
61104;SDS011;46987;32.638;-115.438;2022-10-14T04:10:44;35.00;;;9.20;;
61104;SDS011;46987;32.638;-115.438;2022-10-14T04:13:16;36.72;;;10.05;;
61104;SDS011;46987;32.638;-115.438;2022-10-14T04:15:46;39.08;;;10.57;;
61104;SDS011;46987;32.638;-115.438;2022-10-14T04:18:35;44.85;;;10.65;;
61104;SDS011;46987;32.638;-115.438;2022-10-14T04:21:04;31.42;;;11.52;;
61104;SDS011;46987;32.638;-115.438;2022-10-14T04:23:34;31.85;;;10.52;;
61104;SDS011;46987;32.638;-115.438;2022-10-14T04:26:10;32.58;;;9.50;;
61104;SDS011;46987;32.638;-115.438;2022-10-14T04:28:38;41.33;;;9.65;;
61104;SDS011;46987;32.638;-115.438;2022-10-14T04:31:13;28.98;;;9.13;;
61104;SDS011;46987;32.638;-115.438;2022-10-14T04:33:55;26.73;;;9.20;;
61104;SDS011;46987;32.638;-115.438;2022-10-14T04:36:29;28.75;;;7.93;;
61104;SDS011;46987;32.638;-115.438;2022-10-14T04:39:01;23.70;;;7.47;;
61104;SDS011;46987;32.638;-115.438;2022-10-14T04:41:28;18.35;;;7.45;;
61104;SDS011;46987;32.638;-115.438;2022-10-14T04:43:57;15.43;;;6.70;;
61104;SDS011;46987;32.638;-115.438;2022-10-14T04:46:34;14.18;;;6.00;;
61104;SDS011;46987;32.638;-115.438;2022-10-14T04:49:01;13.02;;;5.18;;
61104;SDS011;46987;32.638;-115.438;2022-10-14T04:51:38;14.82;;;4.85;;
61104;SDS011;46987;32.638;-115.438;2022-10-14T04:54:20;14.50;;;5.35;;
61104;SDS011;46987;32.638;-115.438;2022-10-14T04:56:56;15.60;;;5.03;;
61104;SDS011;46987;32.638;-115.438;2022-10-14T04:59:23;12.48;;;5.18;;
61104;SDS011;46987;32.638;-115.438;2022-10-14T05:01:57;12.45;;;5.45;;
61104;SDS011;46987;32.638;-115.438;2022-10-14T05:04:34;9.20;;;4.88;;
61104;SDS011;46987;32.638;-115.438;2022-10-14T05:07:01;11.00;;;5.20;;
61104;SDS011;46987;32.638;-115.438;2022-10-14T05:09:31;17.25;;;5.88;;
61104;SDS011;46987;32.638;-115.438;2022-10-14T05:11:59;9.65;;;4.68;;
61104;SDS011;46987;32.638;-115.438;2022-10-14T05:14:37;12.90;;;5.22;;
61104;SDS011;46987;32.638;-115.438;2022-10-14T05:17:21;12.82;;;5.00;;
61104;SDS011;46987;32.638;-115.438;2022-10-14T05:19:49;15.30;;;5.15;;
61104;SDS011;46987;32.638;-115.438;2022-10-14T05:22:18;9.82;;;4.47;;
61104;SDS011;46987;32.638;-115.438;2022-10-14T05:24:47;14.60;;;5.18;;
61104;SDS011;46987;32.638;-115.438;2022-10-14T05:27:17;14.73;;;4.93;;
61104;SDS011;46987;32.638;-115.438;2022-10-14T05:29:45;10.57;;;4.85;;
61104;SDS011;46987;32.638;-115.438;2022-10-14T05:32:14;11.68;;;4.80;;
61104;SDS011;46987;32.638;-115.438;2022-10-14T05:34:44;13.38;;;4.05;;
61104;SDS011;46987;32.638;-115.438;2022-10-14T05:37:20;14.75;;;4.55;;
61104;SDS011;46987;32.638;-115.438;2022-10-14T05:39:52;13.65;;;4.30;;
61104;SDS011;46987;32.638;-115.438;2022-10-14T05:42:23;10.52;;;4.10;;
61104;SDS011;46987;32.638;-115.438;2022-10-14T05:44:53;14.80;;;4.38;;
61104;SDS011;46987;32.638;-115.438;2022-10-14T05:47:22;8.20;;;4.07;;
61104;SDS011;46987;32.638;-115.438;2022-10-14T05:49:54;7.82;;;4.85;;
61104;SDS011;46987;32.638;-115.438;2022-10-14T05:52:22;10.27;;;4.90;;
61104;SDS011;46987;32.638;-115.438;2022-10-14T05:54:49;8.73;;;4.57;;
61104;SDS011;46987;32.638;-115.438;2022-10-14T05:57:23;11.48;;;3.78;;
61104;SDS011;46987;32.638;-115.438;2022-10-14T05:59:50;11.30;;;3.67;;
61104;SDS011;46987;32.638;-115.438;2022-10-14T06:02:19;10.48;;;4.18;;
61104;SDS011;46987;32.638;-115.438;2022-10-14T06:04:47;10.18;;;4.03;;
61104;SDS011;46987;32.638;-115.438;2022-10-14T06:07:14;11.60;;;4.40;;
61104;SDS011;46987;32.638;-115.438;2022-10-14T06:09:42;10.45;;;4.63;;
61104;SDS011;46987;32.638;-115.438;2022-10-14T06:12:10;12.93;;;5.45;;
61104;SDS011;46987;32.638;-115.438;2022-10-14T06:14:39;10.52;;;5.70;;
61104;SDS011;46987;32.638;-115.438;2022-10-14T06:17:06;9.65;;;4.80;;
61104;SDS011;46987;32.638;-115.438;2022-10-14T06:19:34;10.55;;;4.75;;
61104;SDS011;46987;32.638;-115.438;2022-10-14T06:22:01;8.32;;;4.05;;
61104;SDS011;46987;32.638;-115.438;2022-10-14T06:24:28;10.43;;;4.05;;
61104;SDS011;46987;32.638;-115.438;2022-10-14T06:26:56;8.00;;;4.20;;
61104;SDS011;46987;32.638;-115.438;2022-10-14T06:29:23;9.40;;;4.47;;
61104;SDS011;46987;32.638;-115.438;2022-10-14T06:31:57;12.80;;;4.13;;
61104;SDS011;46987;32.638;-115.438;2022-10-14T06:34:24;14.07;;;3.95;;
61104;SDS011;46987;32.638;-115.438;2022-10-14T06:36:52;7.57;;;3.55;;
61104;SDS011;46987;32.638;-115.438;2022-10-14T06:39:19;7.40;;;3.65;;
61104;SDS011;46987;32.638;-115.438;2022-10-14T06:41:46;8.82;;;3.45;;
61104;SDS011;46987;32.638;-115.438;2022-10-14T06:44:18;9.98;;;3.90;;
61104;SDS011;46987;32.638;-115.438;2022-10-14T06:46:45;7.57;;;3.60;;
61104;SDS011;46987;32.638;-115.438;2022-10-14T06:49:14;9.60;;;3.45;;
61104;SDS011;46987;32.638;-115.438;2022-10-14T06:51:41;7.20;;;3.60;;
61104;SDS011;46987;32.638;-115.438;2022-10-14T06:54:09;11.10;;;3.55;;
61104;SDS011;46987;32.638;-115.438;2022-10-14T06:56:36;10.75;;;3.35;;
61104;SDS011;46987;32.638;-115.438;2022-10-14T06:59:03;8.52;;;3.30;;
61104;SDS011;46987;32.638;-115.438;2022-10-14T07:01:30;8.32;;;3.20;;
61104;SDS011;46987;32.638;-115.438;2022-10-14T07:03:57;10.38;;;3.65;;
61104;SDS011;46987;32.638;-115.438;2022-10-14T07:06:29;7.22;;;2.95;;
61104;SDS011;46987;32.638;-115.438;2022-10-14T07:08:59;9.57;;;3.38;;
61104;SDS011;46987;32.638;-115.438;2022-10-14T07:11:27;5.88;;;2.63;;
61104;SDS011;46987;32.638;-115.438;2022-10-14T07:13:54;7.25;;;2.58;;
61104;SDS011;46987;32.638;-115.438;2022-10-14T07:16:22;9.40;;;3.58;;
61104;SDS011;46987;32.638;-115.438;2022-10-14T07:18:50;7.93;;;2.70;;
61104;SDS011;46987;32.638;-115.438;2022-10-14T07:21:17;9.65;;;2.33;;
61104;SDS011;46987;32.638;-115.438;2022-10-14T07:23:45;6.03;;;2.38;;
61104;SDS011;46987;32.638;-115.438;2022-10-14T07:26:13;7.93;;;2.20;;
61104;SDS011;46987;32.638;-115.438;2022-10-14T07:28:40;7.15;;;1.80;;
61104;SDS011;46987;32.638;-115.438;2022-10-14T07:31:08;6.22;;;2.03;;
61104;SDS011;46987;32.638;-115.438;2022-10-14T07:33:36;8.05;;;2.65;;
61104;SDS011;46987;32.638;-115.438;2022-10-14T07:36:05;10.35;;;2.33;;
61104;SDS011;46987;32.638;-115.438;2022-10-14T07:38:35;4.47;;;1.85;;
61104;SDS011;46987;32.638;-115.438;2022-10-14T07:41:04;5.80;;;2.10;;
61104;SDS011;46987;32.638;-115.438;2022-10-14T07:43:36;5.78;;;1.88;;
61104;SDS011;46987;32.638;-115.438;2022-10-14T07:46:04;7.88;;;2.17;;
61104;SDS011;46987;32.638;-115.438;2022-10-14T07:48:33;7.38;;;2.28;;
61104;SDS011;46987;32.638;-115.438;2022-10-14T07:51:01;5.55;;;2.40;;
61104;SDS011;46987;32.638;-115.438;2022-10-14T07:53:28;5.15;;;2.17;;
61104;SDS011;46987;32.638;-115.438;2022-10-14T07:55:55;8.35;;;2.15;;
61104;SDS011;46987;32.638;-115.438;2022-10-14T07:58:26;4.70;;;2.35;;
61104;SDS011;46987;32.638;-115.438;2022-10-14T08:00:55;9.15;;;2.65;;
61104;SDS011;46987;32.638;-115.438;2022-10-14T08:03:23;5.68;;;1.83;;
61104;SDS011;46987;32.638;-115.438;2022-10-14T08:05:56;5.35;;;2.40;;
61104;SDS011;46987;32.638;-115.438;2022-10-14T08:08:25;8.75;;;2.45;;
61104;SDS011;46987;32.638;-115.438;2022-10-14T08:11:03;8.15;;;2.17;;
61104;SDS011;46987;32.638;-115.438;2022-10-14T08:13:34;6.50;;;2.55;;
61104;SDS011;46987;32.638;-115.438;2022-10-14T08:16:01;7.68;;;2.17;;
61104;SDS011;46987;32.638;-115.438;2022-10-14T08:18:29;6.40;;;2.20;;
61104;SDS011;46987;32.638;-115.438;2022-10-14T08:20:56;6.65;;;2.60;;
61104;SDS011;46987;32.638;-115.438;2022-10-14T08:23:23;6.70;;;2.05;;
61104;SDS011;46987;32.638;-115.438;2022-10-14T08:25:51;5.18;;;1.98;;
61104;SDS011;46987;32.638;-115.438;2022-10-14T08:28:19;5.68;;;2.13;;
61104;SDS011;46987;32.638;-115.438;2022-10-14T08:30:47;7.88;;;2.30;;
61104;SDS011;46987;32.638;-115.438;2022-10-14T08:33:15;6.15;;;2.35;;
61104;SDS011;46987;32.638;-115.438;2022-10-14T08:35:42;5.32;;;2.05;;
61104;SDS011;46987;32.638;-115.438;2022-10-14T08:38:10;9.38;;;2.30;;
61104;SDS011;46987;32.638;-115.438;2022-10-14T08:40:44;5.43;;;2.13;;
61104;SDS011;46987;32.638;-115.438;2022-10-14T08:43:20;6.05;;;2.28;;
61104;SDS011;46987;32.638;-115.438;2022-10-14T08:45:57;9.95;;;2.47;;
61104;SDS011;46987;32.638;-115.438;2022-10-14T08:48:32;5.72;;;2.70;;
61104;SDS011;46987;32.638;-115.438;2022-10-14T08:51:02;6.70;;;2.35;;
61104;SDS011;46987;32.638;-115.438;2022-10-14T08:53:35;6.05;;;2.20;;
61104;SDS011;46987;32.638;-115.438;2022-10-14T08:56:05;8.27;;;2.05;;
61104;SDS011;46987;32.638;-115.438;2022-10-14T08:58:36;6.22;;;2.25;;
61104;SDS011;46987;32.638;-115.438;2022-10-14T09:01:12;6.95;;;2.83;;
61104;SDS011;46987;32.638;-115.438;2022-10-14T09:03:47;7.75;;;2.55;;
61104;SDS011;46987;32.638;-115.438;2022-10-14T09:06:19;6.88;;;2.80;;
61104;SDS011;46987;32.638;-115.438;2022-10-14T09:08:52;7.85;;;2.72;;
61104;SDS011;46987;32.638;-115.438;2022-10-14T09:11:22;8.32;;;2.70;;
61104;SDS011;46987;32.638;-115.438;2022-10-14T09:13:50;11.73;;;2.88;;
61104;SDS011;46987;32.638;-115.438;2022-10-14T09:16:23;5.43;;;2.60;;
61104;SDS011;46987;32.638;-115.438;2022-10-14T09:18:53;6.17;;;2.30;;
61104;SDS011;46987;32.638;-115.438;2022-10-14T09:21:29;7.38;;;2.72;;
61104;SDS011;46987;32.638;-115.438;2022-10-14T09:24:14;5.57;;;2.45;;
61104;SDS011;46987;32.638;-115.438;2022-10-14T09:26:45;6.20;;;2.35;;
61104;SDS011;46987;32.638;-115.438;2022-10-14T09:29:18;5.85;;;2.50;;
61104;SDS011;46987;32.638;-115.438;2022-10-14T09:31:52;5.68;;;2.20;;
61104;SDS011;46987;32.638;-115.438;2022-10-14T09:34:26;7.93;;;2.22;;
61104;SDS011;46987;32.638;-115.438;2022-10-14T09:36:55;6.53;;;2.57;;
61104;SDS011;46987;32.638;-115.438;2022-10-14T09:39:30;10.32;;;2.95;;
61104;SDS011;46987;32.638;-115.438;2022-10-14T09:42:06;8.23;;;2.58;;
61104;SDS011;46987;32.638;-115.438;2022-10-14T09:47:52;8.07;;;2.22;;
61104;SDS011;46987;32.638;-115.438;2022-10-14T09:50:24;8.00;;;2.75;;
61104;SDS011;46987;32.638;-115.438;2022-10-14T09:52:57;6.50;;;2.60;;
61104;SDS011;46987;32.638;-115.438;2022-10-14T09:55:27;7.65;;;2.58;;
61104;SDS011;46987;32.638;-115.438;2022-10-14T09:58:00;9.23;;;2.75;;
61104;SDS011;46987;32.638;-115.438;2022-10-14T10:00:30;5.88;;;2.70;;
61104;SDS011;46987;32.638;-115.438;2022-10-14T10:03:02;8.85;;;2.85;;
61104;SDS011;46987;32.638;-115.438;2022-10-14T10:05:30;7.80;;;2.30;;
61104;SDS011;46987;32.638;-115.438;2022-10-14T10:08:04;8.18;;;2.40;;
61104;SDS011;46987;32.638;-115.438;2022-10-14T10:10:40;8.73;;;2.80;;
61104;SDS011;46987;32.638;-115.438;2022-10-14T10:16:07;4.57;;;2.40;;
61104;SDS011;46987;32.638;-115.438;2022-10-14T10:18:49;8.05;;;2.40;;
61104;SDS011;46987;32.638;-115.438;2022-10-14T10:21:21;9.63;;;2.90;;
61104;SDS011;46987;32.638;-115.438;2022-10-14T10:23:52;8.98;;;2.55;;
61104;SDS011;46987;32.638;-115.438;2022-10-14T10:26:21;10.32;;;2.60;;
61104;SDS011;46987;32.638;-115.438;2022-10-14T10:28:54;6.10;;;2.40;;
61104;SDS011;46987;32.638;-115.438;2022-10-14T10:34:29;7.00;;;2.72;;
61104;SDS011;46987;32.638;-115.438;2022-10-14T10:37:07;8.05;;;2.58;;
61104;SDS011;46987;32.638;-115.438;2022-10-14T10:39:46;6.53;;;2.88;;
61104;SDS011;46987;32.638;-115.438;2022-10-14T10:42:22;6.75;;;2.85;;
61104;SDS011;46987;32.638;-115.438;2022-10-14T10:44:58;6.82;;;2.95;;
61104;SDS011;46987;32.638;-115.438;2022-10-14T10:47:32;6.75;;;2.95;;
61104;SDS011;46987;32.638;-115.438;2022-10-14T10:50:13;10.10;;;2.95;;
61104;SDS011;46987;32.638;-115.438;2022-10-14T10:52:54;8.13;;;2.75;;
61104;SDS011;46987;32.638;-115.438;2022-10-14T10:55:40;11.35;;;3.45;;
61104;SDS011;46987;32.638;-115.438;2022-10-14T10:58:23;9.80;;;3.20;;
61104;SDS011;46987;32.638;-115.438;2022-10-14T11:01:09;5.22;;;2.75;;
61104;SDS011;46987;32.638;-115.438;2022-10-14T11:04:03;10.30;;;2.70;;
61104;SDS011;46987;32.638;-115.438;2022-10-14T11:06:50;9.75;;;3.00;;
61104;SDS011;46987;32.638;-115.438;2022-10-14T11:09:48;10.80;;;3.25;;
61104;SDS011;46987;32.638;-115.438;2022-10-14T11:12:44;6.80;;;2.40;;
61104;SDS011;46987;32.638;-115.438;2022-10-14T11:15:20;10.48;;;2.85;;
61104;SDS011;46987;32.638;-115.438;2022-10-14T11:17:57;6.25;;;2.53;;
61104;SDS011;46987;32.638;-115.438;2022-10-14T11:20:30;8.02;;;3.00;;
61104;SDS011;46987;32.638;-115.438;2022-10-14T11:23:15;8.32;;;2.47;;
61104;SDS011;46987;32.638;-115.438;2022-10-14T11:26:10;6.15;;;2.10;;
61104;SDS011;46987;32.638;-115.438;2022-10-14T11:28:51;7.07;;;2.88;;
61104;SDS011;46987;32.638;-115.438;2022-10-14T11:31:26;8.77;;;3.00;;
61104;SDS011;46987;32.638;-115.438;2022-10-14T11:34:05;10.15;;;2.63;;
61104;SDS011;46987;32.638;-115.438;2022-10-14T11:36:44;9.02;;;2.83;;
61104;SDS011;46987;32.638;-115.438;2022-10-14T11:39:25;6.28;;;2.80;;
61104;SDS011;46987;32.638;-115.438;2022-10-14T11:42:06;9.30;;;2.60;;
61104;SDS011;46987;32.638;-115.438;2022-10-14T11:44:45;7.70;;;2.50;;
61104;SDS011;46987;32.638;-115.438;2022-10-14T11:47:19;7.03;;;2.33;;
61104;SDS011;46987;32.638;-115.438;2022-10-14T11:49:52;6.90;;;2.13;;
61104;SDS011;46987;32.638;-115.438;2022-10-14T11:52:26;6.05;;;3.00;;
61104;SDS011;46987;32.638;-115.438;2022-10-14T11:54:58;6.90;;;2.15;;
61104;SDS011;46987;32.638;-115.438;2022-10-14T11:57:32;7.70;;;2.60;;
61104;SDS011;46987;32.638;-115.438;2022-10-14T12:00:03;8.73;;;2.60;;
61104;SDS011;46987;32.638;-115.438;2022-10-14T12:02:39;8.52;;;2.63;;
61104;SDS011;46987;32.638;-115.438;2022-10-14T12:05:14;8.38;;;2.47;;
61104;SDS011;46987;32.638;-115.438;2022-10-14T12:07:49;6.10;;;2.45;;
61104;SDS011;46987;32.638;-115.438;2022-10-14T12:10:27;7.07;;;2.75;;
61104;SDS011;46987;32.638;-115.438;2022-10-14T12:12:58;6.47;;;2.47;;
61104;SDS011;46987;32.638;-115.438;2022-10-14T12:15:26;6.97;;;2.60;;
61104;SDS011;46987;32.638;-115.438;2022-10-14T12:17:55;8.73;;;2.95;;
61104;SDS011;46987;32.638;-115.438;2022-10-14T12:20:28;8.18;;;2.50;;
61104;SDS011;46987;32.638;-115.438;2022-10-14T12:23:00;7.20;;;2.80;;
61104;SDS011;46987;32.638;-115.438;2022-10-14T12:25:37;8.45;;;2.33;;
61104;SDS011;46987;32.638;-115.438;2022-10-14T12:28:20;8.63;;;2.53;;
61104;SDS011;46987;32.638;-115.438;2022-10-14T12:30:48;7.50;;;2.70;;
61104;SDS011;46987;32.638;-115.438;2022-10-14T12:33:16;7.78;;;2.42;;
61104;SDS011;46987;32.638;-115.438;2022-10-14T12:35:44;9.90;;;2.10;;
61104;SDS011;46987;32.638;-115.438;2022-10-14T12:38:16;7.38;;;2.45;;
61104;SDS011;46987;32.638;-115.438;2022-10-14T12:40:46;8.15;;;2.38;;
61104;SDS011;46987;32.638;-115.438;2022-10-14T12:43:17;8.90;;;3.00;;
61104;SDS011;46987;32.638;-115.438;2022-10-14T12:45:50;9.63;;;2.30;;
61104;SDS011;46987;32.638;-115.438;2022-10-14T12:48:32;9.02;;;2.38;;
61104;SDS011;46987;32.638;-115.438;2022-10-14T12:51:10;11.23;;;2.80;;
61104;SDS011;46987;32.638;-115.438;2022-10-14T12:54:02;8.73;;;2.30;;
61104;SDS011;46987;32.638;-115.438;2022-10-14T12:56:41;7.43;;;2.97;;
61104;SDS011;46987;32.638;-115.438;2022-10-14T12:59:20;7.50;;;2.38;;
61104;SDS011;46987;32.638;-115.438;2022-10-14T13:01:56;7.03;;;2.60;;
61104;SDS011;46987;32.638;-115.438;2022-10-14T13:04:26;5.95;;;2.33;;
61104;SDS011;46987;32.638;-115.438;2022-10-14T13:19:40;10.02;;;3.20;;
61104;SDS011;46987;32.638;-115.438;2022-10-14T13:25:14;14.35;;;3.78;;
61104;SDS011;46987;32.638;-115.438;2022-10-14T13:30:34;17.75;;;4.68;;
61104;SDS011;46987;32.638;-115.438;2022-10-14T13:38:38;17.70;;;5.10;;
61104;SDS011;46987;32.638;-115.438;2022-10-14T13:41:14;18.70;;;5.78;;
61104;SDS011;46987;32.638;-115.438;2022-10-14T13:43:54;21.25;;;5.97;;
61104;SDS011;46987;32.638;-115.438;2022-10-14T13:46:24;18.75;;;5.60;;
61104;SDS011;46987;32.638;-115.438;2022-10-14T13:48:55;17.38;;;5.15;;
61104;SDS011;46987;32.638;-115.438;2022-10-14T13:51:31;15.38;;;3.90;;
61104;SDS011;46987;32.638;-115.438;2022-10-14T13:54:17;16.08;;;3.63;;
61104;SDS011;46987;32.638;-115.438;2022-10-14T13:56:56;16.45;;;3.65;;
61104;SDS011;46987;32.638;-115.438;2022-10-14T13:59:25;11.95;;;3.05;;
61104;SDS011;46987;32.638;-115.438;2022-10-14T14:01:53;13.30;;;4.40;;
61104;SDS011;46987;32.638;-115.438;2022-10-14T14:04:23;14.18;;;3.38;;
61104;SDS011;46987;32.638;-115.438;2022-10-14T14:06:53;14.77;;;3.28;;
61104;SDS011;46987;32.638;-115.438;2022-10-14T14:09:22;10.27;;;3.47;;
61104;SDS011;46987;32.638;-115.438;2022-10-14T14:11:52;12.98;;;3.58;;
61104;SDS011;46987;32.638;-115.438;2022-10-14T14:14:23;16.27;;;3.30;;
61104;SDS011;46987;32.638;-115.438;2022-10-14T14:16:59;24.05;;;4.38;;
61104;SDS011;46987;32.638;-115.438;2022-10-14T14:19:27;10.13;;;3.20;;
61104;SDS011;46987;32.638;-115.438;2022-10-14T14:22:07;18.00;;;3.63;;
61104;SDS011;46987;32.638;-115.438;2022-10-14T14:24:41;17.90;;;3.35;;
61104;SDS011;46987;32.638;-115.438;2022-10-14T14:27:10;12.38;;;2.88;;
61104;SDS011;46987;32.638;-115.438;2022-10-14T14:29:42;10.55;;;2.50;;
61104;SDS011;46987;32.638;-115.438;2022-10-14T14:32:12;14.23;;;3.05;;
61104;SDS011;46987;32.638;-115.438;2022-10-14T14:34:42;14.05;;;3.08;;
61104;SDS011;46987;32.638;-115.438;2022-10-14T14:37:24;15.98;;;3.20;;
61104;SDS011;46987;32.638;-115.438;2022-10-14T14:39:56;12.10;;;3.60;;
61104;SDS011;46987;32.638;-115.438;2022-10-14T14:42:24;14.07;;;2.83;;
61104;SDS011;46987;32.638;-115.438;2022-10-14T14:44:54;23.00;;;4.32;;
61104;SDS011;46987;32.638;-115.438;2022-10-14T14:47:26;15.35;;;3.30;;
61104;SDS011;46987;32.638;-115.438;2022-10-14T14:49:54;14.10;;;3.08;;
61104;SDS011;46987;32.638;-115.438;2022-10-14T14:52:24;18.27;;;3.28;;
61104;SDS011;46987;32.638;-115.438;2022-10-14T14:54:54;12.63;;;3.03;;
61104;SDS011;46987;32.638;-115.438;2022-10-14T14:57:21;15.68;;;2.45;;
61104;SDS011;46987;32.638;-115.438;2022-10-14T14:59:51;14.68;;;3.28;;
61104;SDS011;46987;32.638;-115.438;2022-10-14T15:02:25;16.33;;;2.90;;
61104;SDS011;46987;32.638;-115.438;2022-10-14T15:04:59;9.23;;;2.58;;
61104;SDS011;46987;32.638;-115.438;2022-10-14T15:07:29;12.73;;;3.47;;
61104;SDS011;46987;32.638;-115.438;2022-10-14T15:09:57;17.75;;;3.13;;
61104;SDS011;46987;32.638;-115.438;2022-10-14T15:12:26;12.00;;;3.40;;
61104;SDS011;46987;32.638;-115.438;2022-10-14T15:15:22;20.55;;;4.63;;